Tiempo atmosférico en la estación meteorológica de Lanaja, Huesca (380 m.)



Fecha
DESCASC
Temp. máxima en grados centígrados (hora)
DESCASC
Temp. mínima en grados centígrados (hora)
DESCASC
Temp. media en grados centígrados
DESCASC
Racha de viento máxima en m/sg (hora)
DESCASC
Velocidad máxima media en intervalos de 10 minutos(hora)
DESCASC
Precipitaciones diarias en mm
DESCASC
Precipitaciones de 00:00 a 06:00 en mm
DESCASC
Precipitaciones de 06:00 a 12:00 en mm
DESCASC
Precipitaciones de 12:00 a 18:00 en mm
DESCASC
Precipitaciones de 18:00 a 24:00 en mm
DESCASC
19-09-2019 28.4 (17:20) 17.3 (08:20) 22.8 10 (23:40) 5.28 (23:40) 0 0 0 0 0
18-09-2019 29.5 (16:50) 18.5 (08:00) 24 11.94 (00:20) 7.5 (00:20) 0 0 0 0 0
17-09-2019 30.2 (17:20) 17 (00:00) 23.6 5.28 (23:40) 3.33 (23:59) 0 0 0 0 0
16-09-2019 28.7 (17:20) 18.1 (00:00) 23.4 6.11 (16:00) 3.61 (15:20) 0 0 0 0 0
15-09-2019 26.6 (15:30) 16.7 (00:00) 21.7 7.5 (15:40) 4.17 (15:40) 0.4 0 0 0.4 0
14-09-2019 27 (17:00) 14.1 (00:00) 20.6 9.44 (17:10) 5.83 (17:10) 4.4 0.2 0.2 0 4
13-09-2019 25.8 (17:20) 15.2 (00:00) 20.5 11.94 (23:00) 6.67 (23:00) 0.2 0 0 0 0.2
12-09-2019 29.1 (18:10) 11.9 (00:00) 20.5 6.11 (11:30) 3.89 (11:30) 0 0 0 0 0
11-09-2019 26.1 (15:20) 14.6 (00:00) 20.4 9.17 (03:50) 6.39 (01:00) 0 0 0 0 0
10-09-2019 21.1 (15:30) 13.5 (07:50) 17.3 20 (09:20) 14.44 (11:00) 0 0 0 0 0
09-09-2019 25.4 (16:00) 10.4 (07:20) 17.9 5.83 (00:10) 4.17 (00:10) 0 0 0 0 0
08-09-2019 25.9 (16:10) 11.6 (00:00) 18.8 11.39 (15:20) 7.78 (16:30) 0 0 0 0 0
07-09-2019 25.6 (18:50) 10.6 (00:00) 18.1 8.61 (00:20) 5.56 (00:20) 0 0 0 0 0
06-09-2019 25.3 (16:30) 10.5 (00:00) 17.9 10 (00:10) 6.67 (00:10) 0 0 0 0 0
05-09-2019 25.8 (15:30) 14.8 (00:00) 20.3 14.72 (20:30) 10.28 (18:40) 0 0 0 0 0
04-09-2019 30.5 (17:40) 15.4 (00:00) 22.9 11.39 (22:10) 8.33 (22:20) 0 0 0 0 0
03-09-2019 27.7 (17:40) 12.5 (00:00) 20.1 5.83 (00:10) 4.44 (04:30) 0 0 0 0 0
02-09-2019 26.9 (16:40) 14.8 (00:00) 20.8 12.5 (09:30) 8.61 (08:50) 0 0 0 0 0
01-09-2019 29.1 (17:10) 18.6 (00:00) 23.9 11.11 (22:40) 7.5 (22:00) 0 0 0 0 0
31-08-2019 32.9 (15:40) 20.3 (00:00) 26.6 11.39 (17:40) 6.67 (17:30) 0 0 0 0 0
30-08-2019 33 (16:30) 20.2 (00:00) 26.6 5.83 (17:50) 4.17 (17:50) 0 0 0 0 0
29-08-2019 32.2 (17:40) 18.6 (00:00) 25.4 6.11 (13:40) 3.33 (18:30) 0 0 0 0 0
28-08-2019 30.5 (16:40) 16.5 (00:00) 23.5 5.83 (12:40) 3.89 (06:50) 0 0 0 0 0
27-08-2019 28 (17:40) 18.7 (00:00) 23.4 11.39 (18:50) 7.78 (18:50) 0.6 0.2 0.4 0 0
26-08-2019 29.1 (17:20) 18.1 (00:00) 23.6 13.89 (16:50) 8.33 (16:50) 0 0 0 0 0
25-08-2019 32.2 (17:10) 17.9 (00:00) 25.1 9.17 (21:10) 6.11 (21:10) 0 0 0 0 0
24-08-2019 31.7 (18:20) 17.5 (00:00) 24.6 6.67 (15:30) 3.89 (15:30) 0 0 0 0 0
23-08-2019 30.4 (17:40) 16.7 (00:00) 23.6 6.39 (17:50) 3.61 (15:50) 0 0 0 0 0
22-08-2019 29.3 (18:00) 14.6 (00:00) 21.9 7.22 (13:00) 3.89 (00:20) 0 0 0 0 0
21-08-2019 27.1 (16:50) 15.7 (00:00) 21.4 6.39 (18:20) 4.44 (18:40) 0 0 0 0 0

Gráficas

Temp. máximas Temp. mínimas Temp. medias Precipitaciones Rachas de viento máximas Velocidades máximas media en intervalos de 10 minutos

Datos horarios

Fecha y hora oficial Temperatura (ºC) Velocidad del viento (km/h) Dirección del viento Racha (km/h) Dirección de racha Precipitación (mm) Presión (hPa) Tendencia (hPa) Humedad (%)
2019-09-19 23:00:00 21.2 15 Sudeste 29 Sudeste 0 -- -- 63
2019-09-19 22:00:00 22.4 12 Sudeste 24 Sudeste 0 -- -- 58
2019-09-19 21:00:00 24.2 14 Sur 26 Sudeste 0 -- -- 54
2019-09-19 20:00:00 25.9 6 Este 14 Este 0 -- -- 47
2019-09-19 19:00:00 27.3 9 Este 19 Este 0 -- -- 44
2019-09-19 18:00:00 28 8 Sudeste 18 Sudeste 0 -- -- 43
2019-09-19 17:00:00 27.9 10 Nordeste 21 Este 0 -- -- 43
2019-09-19 16:00:00 27.8 10 Nordeste 17 Nordeste 0 -- -- 43
2019-09-19 15:00:00 27.7 7 Este 17 Este 0 -- -- 43
2019-09-19 14:00:00 26.6 9 Este 17 Este 0 -- -- 46
2019-09-19 13:00:00 24.7 7 Este 15 Nordeste 0 -- -- 52
2019-09-19 12:00:00 23.2 9 Nordeste 13 Norte 0 -- -- 58
2019-09-19 11:00:00 21.5 5 Norte 9 Norte 0 -- -- 63
2019-09-19 10:00:00 19 3 Norte 8 Norte 0 -- -- 75
2019-09-19 09:00:00 17.9 0 Calma 9 Nordeste 0 -- -- 79
2019-09-19 08:00:00 17.5 3 Noroeste 9 Noroeste 0 -- -- 78
2019-09-19 07:00:00 17.8 9 Noroeste 15 Noroeste 0 -- -- 75
2019-09-19 06:00:00 18 9 Oeste 11 Oeste 0 -- -- 76
2019-09-19 05:00:00 18.5 7 Norte 12 Noroeste 0 -- -- 74
2019-09-19 04:00:00 19.7 7 Oeste 12 Oeste 0 -- -- 67
2019-09-19 03:00:00 19.1 9 Noroeste 13 Noroeste 0 -- -- 70
2019-09-19 02:00:00 20.1 3 Sudoeste 15 Este 0 -- -- 67
2019-09-19 01:00:00 21.4 2 Norte 13 Noroeste 0 -- -- 58
2019-09-19 00:00:00 22 10 Noroeste 16 Noroeste 0 -- -- 55
2019-09-18 23:00:00 22.1 13 Noroeste 17 Noroeste 0 -- -- 51
2019-09-18 22:00:00 22.7 12 Oeste 22 Noroeste 0 -- -- 47
2019-09-18 21:00:00 24.1 13 Oeste 18 Oeste 0 -- -- 44
2019-09-18 20:00:00 25 11 Sur 27 Sudeste 0 -- -- 44
2019-09-18 19:00:00 27.3 15 Oeste 26 Noroeste 0 -- -- 36
2019-09-18 18:00:00 27.7 12 Noroeste 20 Noroeste 0 -- -- 38
2019-09-18 17:00:00 29.5 5 Norte 19 Norte 0 -- -- 31
2019-09-18 16:00:00 28.3 6 Nordeste 19 Nordeste 0 -- -- 41
2019-09-18 15:00:00 28.4 9 Este 21 Este 0 -- -- 43
2019-09-18 14:00:00 27.4 10 Nordeste 19 Norte 0 -- -- 46
2019-09-18 13:00:00 26.2 11 Nordeste 20 Norte 0 -- -- 51
2019-09-18 12:00:00 24.8 8 Nordeste 14 Nordeste 0 -- -- 55
2019-09-18 11:00:00 23.4 8 Nordeste 13 Nordeste 0 -- -- 58
2019-09-18 10:00:00 20.8 8 Nordeste 17 Noroeste 0 -- -- 65
2019-09-18 09:00:00 20.7 14 Oeste 24 Noroeste 0 -- -- 63
2019-09-18 08:00:00 18.5 9 Noroeste 21 Noroeste 0 -- -- 65
2019-09-18 07:00:00 19.8 17 Oeste 21 Oeste 0 -- -- 61
2019-09-18 06:00:00 21 14 Oeste 18 Oeste 0 -- -- 56
2019-09-18 05:00:00 19.9 7 Oeste 14 Noroeste 0 -- -- 56
2019-09-18 04:00:00 19.5 11 Noroeste 15 Norte 0 -- -- 59
2019-09-18 03:00:00 19.6 12 Norte 22 Norte 0 -- -- 62
2019-09-18 02:00:00 21.5 17 Nordeste 42 Oeste 0 -- -- 51
2019-09-18 01:00:00 23.8 22 Oeste 43 Sudoeste 0 -- -- 44
2019-09-18 00:00:00 23.2 12 Sudoeste 19 Sudoeste 0 -- -- 46
2019-09-17 23:00:00 23.4 7 Sudoeste 12 Sudoeste 0 -- -- 48
2019-09-17 22:00:00 24.1 8 Sudoeste 11 Sudoeste 0 -- -- 47
2019-09-17 21:00:00 26.4 0 Calma 4 Oeste 0 -- -- 41
2019-09-15 18:00:00 -- -- -- -- -- -- -- -- --
2019-09-15 17:00:00 22.5 10 Nordeste 73 Sudeste 0.4 -- -- 58
2019-09-15 16:00:00 25.8 10 Sudeste 27 Este 0 -- -- 37
2019-09-15 15:00:00 25.6 14 Este 22 Sudeste 0 -- -- 42
2019-09-15 14:00:00 25.5 9 Este 19 Sur 0 -- -- 42
2019-09-15 13:00:00 25 12 Este 22 Sudeste 0 -- -- 44
2019-09-15 12:00:00 23.3 13 Este 21 Este 0 -- -- 53
2019-09-15 11:00:00 22.1 8 Nordeste 14 Nordeste 0 -- -- 63
2019-09-15 10:00:00 19.9 4 Norte 7 Noroeste 0 -- -- 65
2019-09-15 09:00:00 18 5 Noroeste 8 Oeste 0 -- -- 76
2019-09-15 08:00:00 17.2 5 Oeste 9 Sudoeste 0 -- -- 75
2019-09-15 07:00:00 16.7 0 Calma 10 Nordeste 0 -- -- 76
2019-09-15 06:00:00 17.8 3 Sudeste 13 Este 0 -- -- 73
2019-09-15 05:00:00 18.4 5 Sudeste 9 Este 0 -- -- 71
2019-09-15 04:00:00 18 5 Sudoeste 6 Sudoeste 0 -- -- 74
2019-09-15 03:00:00 18.5 3 Sur 11 Este 0 -- -- 73
2019-09-15 02:00:00 18.8 2 Sudoeste 7 Norte 0 -- -- 71
2019-09-15 01:00:00 18.9 0 Calma 14 Noroeste 0 -- -- 72
2019-09-15 00:00:00 19 12 Noroeste 15 Noroeste 0 -- -- 74
2019-09-14 23:00:00 19.7 10 Noroeste 12 Noroeste 0 -- -- 70
2019-09-14 22:00:00 20.4 4 Sudoeste 28 Norte 4 -- -- 64
2019-09-14 21:00:00 21.9 5 Norte 12 Norte 0 -- -- 60
2019-09-14 20:00:00 23.2 8 Norte 11 Sudoeste 0 -- -- 53
2019-09-14 19:00:00 25.3 9 Sur 17 Sudeste 0 -- -- 46
2019-09-14 18:00:00 25 8 Sur 34 Sudeste 0 -- -- 40
2019-09-14 17:00:00 27 16 Sudeste 28 Sudeste 0 -- -- 37
2019-09-14 16:00:00 26.1 14 Sudeste 25 Este 0 -- -- 39
2019-09-14 15:00:00 25.4 5 Sudeste 18 Nordeste 0 -- -- 44
2019-09-14 14:00:00 23.8 10 Este 21 Nordeste 0 -- -- 50
2019-09-14 13:00:00 22.7 11 Nordeste 17 Nordeste 0 -- -- 52
2019-09-14 12:00:00 21.5 8 Nordeste 15 Nordeste 0 -- -- 63
2019-09-14 11:00:00 19.5 6 Nordeste 12 Nordeste 0.2 -- -- 77
2019-09-14 10:00:00 18.1 5 Nordeste 7 Nordeste 0 -- -- 82
2019-09-14 09:00:00 17.1 5 Oeste 12 Oeste 0 -- -- 79
2019-09-14 08:00:00 15.8 10 Oeste 15 Oeste 0 -- -- 82
2019-09-14 07:00:00 15.1 9 Oeste 14 Oeste 0 -- -- 88
2019-09-14 06:00:00 -- -- -- -- -- -- -- -- --
2019-09-14 05:00:00 14.2 10 Noroeste 11 Noroeste 0 -- -- 88
2019-09-14 04:00:00 15.5 8 Oeste 12 Sudoeste 0 -- -- 88
2019-09-14 03:00:00 15.8 8 Oeste 13 Norte 0 -- -- 89
2019-09-14 02:00:00 16.4 14 Norte 17 Norte 0 -- -- 89
2019-09-14 01:00:00 17.6 4 Sur 31 Sudeste 0.2 -- -- 81
2019-09-14 00:00:00 17.8 20 Sudeste 33 Sudeste 0.2 -- -- 78
2019-09-13 23:00:00 19.4 24 Sur 43 Sur 0 -- -- 68
2019-09-13 22:00:00 22.5 7 Sur 18 Sur 0 -- -- 48
2019-09-13 21:00:00 23.2 9 Sur 17 Sudeste 0 -- -- 44
2019-09-13 20:00:00 24.7 7 Sudeste 12 Sudeste 0 -- -- 42
2019-09-13 19:00:00 25.5 5 Sur 15 Sur 0 -- -- 39
2019-09-13 18:00:00 25.8 6 Sur 21 Sur 0 -- -- 40
2019-09-13 17:00:00 25 8 Este 21 Este 0 -- -- 42
2019-09-13 16:00:00 24.1 9 Este 21 Sur 0 -- -- 45
2019-09-13 15:00:00 22.5 14 Sudeste 35 Sudeste 0 -- -- 49
2019-09-13 14:00:00 23.3 13 Sudeste 33 Sudeste 0 -- -- 43
2019-09-13 13:00:00 23.3 14 Sudeste 33 Sudeste 0 -- -- 42
2019-09-13 12:00:00 22.7 9 Sur 13 Sur 0 -- -- 44
2019-09-13 11:00:00 21.3 4 Sudoeste 11 Norte 0 -- -- 53
2019-09-13 10:00:00 20 4 Norte 12 Norte 0 -- -- 56
2019-09-13 09:00:00 18 4 Noroeste 11 Noroeste 0 -- -- 59
2019-09-13 08:00:00 16.6 5 Noroeste 10 Oeste 0 -- -- 66
2019-09-13 07:00:00 16 6 Oeste 14 Noroeste 0 -- -- 66
2019-09-13 06:00:00 15.9 11 Noroeste 12 Noroeste 0 -- -- 68
2019-09-13 05:00:00 16.3 8 Noroeste 9 Noroeste 0 -- -- 68
2019-09-13 04:00:00 15.8 5 Noroeste 13 Noroeste 0 -- -- 71
2019-09-13 03:00:00 17.8 8 Este 17 Este 0 -- -- 62
2019-09-13 02:00:00 20.6 7 Sudeste 15 Sudoeste 0 -- -- 48
2019-09-13 01:00:00 19.6 6 Sur 10 Sudeste 0 -- -- 50
2019-09-13 00:00:00 21 6 Sudoeste 9 Sudoeste 0 -- -- 46
2019-09-12 23:00:00 21.2 5 Sudoeste 10 Noroeste 0 -- -- 45
2019-09-12 22:00:00 22.5 3 Sudoeste 15 Noroeste 0 -- -- 42
2019-09-12 21:00:00 25.2 0 Calma 8 Noroeste 0 -- -- 36
2019-09-12 20:00:00 26.7 5 Este 10 Sudeste 0 -- -- 34
2019-09-12 19:00:00 27.8 8 Sudeste 14 Sur 0 -- -- 31
2019-09-12 18:00:00 28.7 7 Sudoeste 15 Sudoeste 0 -- -- 30
2019-09-12 17:00:00 27.7 4 Oeste 18 Nordeste 0 -- -- 34
2019-09-12 16:00:00 26.9 8 Norte 21 Nordeste 0 -- -- 36
2019-09-12 15:00:00 26.8 5 Sudeste 15 Este 0 -- -- 34
2019-09-12 14:00:00 25.2 4 Sudeste 16 Nordeste 0 -- -- 42
2019-09-12 13:00:00 22.8 10 Norte 18 Norte 0 -- -- 46
2019-09-12 12:00:00 21 13 Norte 22 Nordeste 0 -- -- 50
2019-09-12 11:00:00 19.5 9 Nordeste 13 Nordeste 0 -- -- 56
2019-09-12 10:00:00 17.8 2 Sudeste 7 Sudeste 0 -- -- 59
2019-09-12 09:00:00 14.7 4 Norte 9 Noroeste 0 -- -- 65
2019-09-12 08:00:00 12.1 8 Noroeste 12 Noroeste 0 -- -- 75
2019-09-12 07:00:00 13 8 Noroeste 10 Noroeste 0 -- -- 72
2019-09-12 06:00:00 12.7 8 Noroeste 13 Norte 0 -- -- 73
2019-09-12 05:00:00 12.9 12 Norte 13 Norte 0 -- -- 73
2019-09-12 04:00:00 13.8 13 Noroeste 15 Noroeste 0 -- -- 70
2019-09-12 03:00:00 14.9 13 Noroeste 16 Noroeste 0 -- -- 65
2019-09-12 02:00:00 15.3 13 Noroeste 17 Noroeste 0 -- -- 63
2019-09-12 01:00:00 15.6 11 Noroeste 19 Noroeste 0 -- -- 60
2019-09-12 00:00:00 17.2 11 Noroeste 18 Norte 0 -- -- 57
2019-09-11 23:00:00 17.9 9 Noroeste 12 Noroeste 0 -- -- 56
2019-09-11 22:00:00 21.2 8 Oeste 14 Sur 0 -- -- 50
2019-09-11 21:00:00 22.7 0 Calma 18 Sudeste 0 -- -- 49
2019-09-11 20:00:00 23.3 14 Sur 23 Sudeste 0 -- -- 47
2019-09-11 19:00:00 24.4 14 Sudeste 25 Sudeste 0 -- -- 39
2019-09-11 18:00:00 24.9 18 Sudeste 25 Sudeste 0 -- -- 36
2019-09-11 17:00:00 25.3 17 Sur 26 Sudeste 0 -- -- 34
2019-09-11 16:00:00 25.3 19 Sur 29 Sur 0 -- -- 33
2019-09-11 15:00:00 25.9 10 Sudeste 21 Sudeste 0 -- -- 31
2019-09-11 14:00:00 24.8 12 Sur 20 Sudeste 0 -- -- 33
2019-09-11 13:00:00 24.1 10 Sudeste 15 Sudeste 0 -- -- 33
2019-09-11 12:00:00 22.4 6 Norte 13 Nordeste 0 -- -- 35
2019-09-11 11:00:00 21 12 Norte 26 Norte 0 -- -- 40
2019-09-11 10:00:00 19.3 16 Norte 26 Noroeste 0 -- -- 43
2019-09-11 09:00:00 16.5 15 Noroeste 30 Noroeste 0 -- -- 49
2019-09-11 08:00:00 16.4 19 Noroeste 29 Norte 0 -- -- 51
2019-09-11 07:00:00 16.4 16 Noroeste 23 Noroeste 0 -- -- 51
2019-09-11 06:00:00 15.9 14 Noroeste 25 Noroeste 0 -- -- 52
2019-09-11 05:00:00 16.4 18 Noroeste 31 Noroeste 0 -- -- 50
2019-09-11 04:00:00 16.2 22 Norte 33 Noroeste 0 -- -- 50
2019-09-11 03:00:00 15.2 20 Noroeste 27 Noroeste 0 -- -- 55
2019-09-11 02:00:00 14.6 15 Noroeste 30 Noroeste 0 -- -- 55
2019-09-11 01:00:00 15.7 23 Noroeste 31 Noroeste 0 -- -- 51
2019-09-11 00:00:00 15.7 16 Noroeste 26 Noroeste 0 -- -- 51
2019-09-10 23:00:00 15.7 13 Noroeste 22 Noroeste 0 -- -- 50
2019-09-10 22:00:00 15.5 11 Noroeste 15 Noroeste 0 -- -- 61
2019-09-10 21:00:00 16.1 9 Nordeste 19 Norte 0 -- -- 58
2019-09-10 20:00:00 17.7 17 Norte 24 Norte 0 -- -- 53
2019-09-10 19:00:00 18.5 15 Noroeste 39 Noroeste 0 -- -- 45
2019-09-10 18:00:00 19.8 26 Noroeste 44 Noroeste 0 -- -- 38
2019-09-10 17:00:00 18.2 14 Noroeste 30 Noroeste 0 -- -- 48
2019-09-10 16:00:00 19.1 21 Norte 52 Noroeste 0 -- -- 43
2019-09-10 15:00:00 20.8 37 Noroeste 60 Noroeste 0 -- -- 36
2019-09-10 14:00:00 19.1 42 Noroeste 66 Noroeste 0 -- -- 40
2019-09-10 13:00:00 18.6 49 Noroeste 68 Noroeste 0 -- -- 41
2019-09-10 12:00:00 17.9 47 Noroeste 72 Noroeste 0 -- -- 43
2019-09-10 11:00:00 16.4 52 Noroeste 71 Noroeste 0 -- -- 45
2019-09-10 10:00:00 15.1 44 Noroeste 72 Noroeste 0 -- -- 52
2019-09-10 09:00:00 14 43 Noroeste 70 Noroeste 0 -- -- 57
2019-09-10 08:00:00 13.5 36 Noroeste 55 Noroeste 0 -- -- 61
2019-09-10 07:00:00 14.3 32 Noroeste 56 Noroeste 0 -- -- 57
2019-09-10 06:00:00 15.6 25 Noroeste 48 Noroeste 0 -- -- 57
2019-09-10 05:00:00 16.2 34 Noroeste 49 Noroeste 0 -- -- 58
2019-09-10 04:00:00 16.8 34 Noroeste 47 Noroeste 0 -- -- 57
2019-09-10 03:00:00 17.5 28 Noroeste 41 Noroeste 0 -- -- 49
2019-09-10 02:00:00 18 20 Noroeste 27 Noroeste 0 -- -- 45
2019-09-10 01:00:00 18.6 13 Noroeste 19 Noroeste 0 -- -- 51
2019-09-10 00:00:00 19.1 8 Noroeste 20 Norte 0 -- -- 47
2019-09-09 23:00:00 21.3 12 Noroeste 13 Noroeste 0 -- -- 41
2019-09-09 22:00:00 21.2 8 Oeste 10 Noroeste 0 -- -- 43
2019-09-09 21:00:00 22.4 3 Este 10 Este 0 -- -- 40
2019-09-09 20:00:00 23.1 5 Nordeste 13 Sudeste 0 -- -- 39
2019-09-09 19:00:00 24 8 Sudeste 14 Sudeste 0 -- -- 35
2019-09-09 18:00:00 24.5 8 Sudeste 19 Este 0 -- -- 34
2019-09-09 17:00:00 25 10 Este 18 Este 0 -- -- 34
2019-09-09 16:00:00 25.4 8 Este 18 Sudeste 0 -- -- 33
2019-09-09 15:00:00 24.6 5 Sudeste 17 Sudeste 0 -- -- 33
2019-09-09 14:00:00 22.8 8 Sudeste 17 Este 0 -- -- 35
2019-09-09 13:00:00 21.2 10 Nordeste 18 Este 0 -- -- 44
2019-09-09 12:00:00 19.5 4 Sudeste 14 Este 0 -- -- 47
2019-09-09 11:00:00 16.6 6 Nordeste 13 Nordeste 0 -- -- 56
2019-09-09 10:00:00 14.3 6 Norte 10 Norte 0 -- -- 62
2019-09-09 09:00:00 11.6 3 Norte 9 Noroeste 0 -- -- 69
2019-09-09 08:00:00 10.9 8 Noroeste 10 Noroeste 0 -- -- 67
2019-09-09 07:00:00 10.7 3 Sudoeste 12 Oeste 0 -- -- 65
2019-09-09 06:00:00 11.8 11 Oeste 13 Oeste 0 -- -- 63
2019-09-09 05:00:00 10.9 6 Noroeste 10 Norte 0 -- -- 68
2019-09-09 04:00:00 12.2 3 Sudoeste 10 Nordeste 0 -- -- 62
2019-09-09 03:00:00 13.7 0 Calma 7 Sudoeste 0 -- -- 58
2019-09-09 02:00:00 14.6 3 Norte 16 Norte 0 -- -- 55
2019-09-09 01:00:00 15.9 9 Norte 21 Oeste 0 -- -- 47
2019-09-09 00:00:00 17.5 17 Oeste 28 Noroeste 0 -- -- 43
2019-09-08 23:00:00 17.6 25 Noroeste 31 Oeste 0 -- -- 43
2019-09-08 22:00:00 18.9 17 Oeste 23 Oeste 0 -- -- 38
2019-09-08 21:00:00 19.5 15 Noroeste 28 Noroeste 0 -- -- 37
2019-09-08 20:00:00 22.3 21 Noroeste 35 Noroeste 0 -- -- 30
2019-09-08 19:00:00 24.3 23 Noroeste 36 Noroeste 0 -- -- 24
2019-09-08 18:00:00 25.5 26 Noroeste 39 Noroeste 0 -- -- 23
2019-09-08 17:00:00 25.7 23 Noroeste 38 Noroeste 0 -- -- 24
2019-09-08 16:00:00 25.4 24 Noroeste 41 Noroeste 0 -- -- 32
2019-09-08 15:00:00 25.2 21 Noroeste 39 Noroeste 0 -- -- 33
2019-09-08 14:00:00 24 15 Noroeste 29 Noroeste 0 -- -- 36
2019-09-08 13:00:00 22.2 16 Noroeste 30 Noroeste 0 -- -- 43
2019-09-08 12:00:00 20.6 12 Noroeste 27 Norte 0 -- -- 50
2019-09-08 11:00:00 18.6 15 Nordeste 22 Nordeste 0 -- -- 61
2019-09-08 10:00:00 16.6 11 Norte 22 Norte 0 -- -- 69
2019-09-08 09:00:00 13.6 10 Norte 15 Noroeste 0 -- -- 78
2019-09-08 08:00:00 11.7 7 Noroeste 14 Noroeste 0 -- -- 82
2019-09-08 07:00:00 11.7 11 Noroeste 15 Noroeste 0 -- -- 82
2019-09-08 06:00:00 11.9 12 Noroeste 17 Noroeste 0 -- -- 78
2019-09-08 05:00:00 12.4 8 Noroeste 17 Noroeste 0 -- -- 73
2019-09-08 04:00:00 12.8 9 Noroeste 14 Noroeste 0 -- -- 70
2019-09-08 03:00:00 13.1 13 Noroeste 17 Oeste 0 -- -- 69
2019-09-08 02:00:00 13.8 12 Noroeste 17 Noroeste 0 -- -- 65
2019-09-08 01:00:00 15.1 10 Noroeste 15 Noroeste 0 -- -- 59
2019-09-08 00:00:00 17.2 5 Norte 27 Noroeste 0 -- -- 50
2019-09-07 23:00:00 18.8 19 Noroeste 24 Noroeste 0 -- -- 41
2019-09-07 22:00:00 19.8 17 Noroeste 21 Oeste 0 -- -- 39
2019-09-07 21:00:00 21.8 12 Oeste 15 Oeste 0 -- -- 32
2019-09-07 20:00:00 24.4 10 Oeste 13 Oeste 0 -- -- 29
2019-09-07 19:00:00 25.5 4 Nordeste 13 Nordeste 0 -- -- 30
2019-09-07 18:00:00 25 6 Nordeste 15 Nordeste 0 -- -- 32
2019-09-07 17:00:00 24.5 8 Este 15 Nordeste 0 -- -- 33
2019-09-07 16:00:00 23.6 9 Nordeste 24 Nordeste 0 -- -- 36
2019-09-07 15:00:00 23 13 Norte 23 Norte 0 -- -- 37
2019-09-07 14:00:00 21.7 14 Norte 22 Norte 0 -- -- 39
2019-09-07 13:00:00 20.6 12 Norte 24 Noroeste 0 -- -- 40
2019-09-07 12:00:00 19.1 9 Norte 22 Norte 0 -- -- 43
2019-09-07 11:00:00 16.9 9 Norte 21 Norte 0 -- -- 49
2019-09-07 10:00:00 14.9 10 Noroeste 15 Noroeste 0 -- -- 57
2019-09-07 09:00:00 12.8 7 Noroeste 9 Noroeste 0 -- -- 65
2019-09-07 08:00:00 10.8 8 Noroeste 9 Noroeste 0 -- -- 72
2019-09-07 07:00:00 11.8 0 Calma 6 Norte 0 -- -- 68
2019-09-07 06:00:00 12.2 0 Calma 6 Sudoeste 0 -- -- 63
2019-09-07 05:00:00 11.7 6 Oeste 15 Noroeste 0 -- -- 66
2019-09-07 04:00:00 12.1 6 Noroeste 17 Noroeste 0 -- -- 67
2019-09-07 03:00:00 12.5 9 Oeste 21 Noroeste 0 -- -- 66
2019-09-07 02:00:00 13.2 17 Noroeste 26 Noroeste 0 -- -- 65
2019-09-07 01:00:00 13.7 18 Noroeste 31 Noroeste 0 -- -- 62
2019-09-07 00:00:00 15 16 Noroeste 27 Noroeste 0 -- -- 56
2019-09-06 23:00:00 15.9 19 Noroeste 30 Oeste 0 -- -- 53
2019-09-06 22:00:00 17.2 13 Oeste 23 Oeste 0 -- -- 48
2019-09-06 21:00:00 18.8 16 Noroeste 24 Noroeste 0 -- -- 43
2019-09-06 20:00:00 21.7 17 Noroeste 24 Oeste 0 -- -- 34
2019-09-06 19:00:00 24.7 16 Oeste 30 Noroeste 0 -- -- 26
2019-09-06 18:00:00 25.2 17 Noroeste 28 Noroeste 0 -- -- 27
2019-09-06 17:00:00 25.2 12 Noroeste 26 Noroeste 0 -- -- 28
2019-09-06 16:00:00 24.8 14 Noroeste 32 Noroeste 0 -- -- 30
2019-09-06 15:00:00 23.8 16 Noroeste 28 Oeste 0 -- -- 32
2019-09-06 14:00:00 22.4 15 Noroeste 26 Noroeste 0 -- -- 34
2019-09-06 13:00:00 22.1 11 Noroeste 20 Oeste 0 -- -- 35
2019-09-06 12:00:00 19.8 11 Noroeste 21 Noroeste 0 -- -- 40
2019-09-06 11:00:00 18 16 Noroeste 23 Norte 0 -- -- 46
2019-09-06 10:00:00 16.3 19 Noroeste 25 Norte 0 -- -- 53
2019-09-06 09:00:00 13.8 9 Noroeste 15 Noroeste 0 -- -- 64
2019-09-06 08:00:00 11 10 Norte 16 Noroeste 0 -- -- 72
2019-09-06 07:00:00 11.1 10 Noroeste 21 Noroeste 0 -- -- 72
2019-09-06 06:00:00 11.9 15 Norte 24 Noroeste 0 -- -- 68
2019-09-06 05:00:00 12.6 15 Noroeste 23 Noroeste 0 -- -- 64
2019-09-06 04:00:00 12.2 15 Noroeste 24 Noroeste 0 -- -- 66
2019-09-06 03:00:00 13.2 18 Noroeste 28 Noroeste 0 -- -- 64
2019-09-06 02:00:00 13.7 19 Noroeste 32 Noroeste 0 -- -- 63
2019-09-06 01:00:00 14.1 23 Noroeste 36 Noroeste 0 -- -- 60
2019-09-06 00:00:00 14.8 27 Noroeste 40 Noroeste 0 -- -- 58
2019-09-05 23:00:00 16 26 Noroeste 44 Noroeste 0 -- -- 52
2019-09-05 22:00:00 17.3 31 Noroeste 51 Noroeste 0 -- -- 44
2019-09-05 21:00:00 18.4 32 Noroeste 53 Noroeste 0 -- -- 40
2019-09-05 20:00:00 20.4 35 Noroeste 50 Noroeste 0 -- -- 34
2019-09-05 19:00:00 22.7 35 Noroeste 50 Noroeste 0 -- -- 32
2019-09-05 18:00:00 24.1 32 Noroeste 47 Noroeste 0 -- -- 30
2019-09-05 17:00:00 24.9 32 Noroeste 46 Noroeste 0 -- -- 28
2019-09-05 16:00:00 25.4 32 Noroeste 49 Noroeste 0 -- -- 29
2019-09-05 15:00:00 25.3 30 Noroeste 46 Norte 0 -- -- 31
2019-09-05 14:00:00 24.5 27 Noroeste 46 Noroeste 0 -- -- 32
2019-09-05 13:00:00 23.1 31 Noroeste 44 Noroeste 0 -- -- 34
2019-09-05 12:00:00 21.9 29 Noroeste 49 Noroeste 0 -- -- 37
2019-09-05 11:00:00 20.8 30 Noroeste 46 Noroeste 0 -- -- 42
2019-09-05 10:00:00 19 31 Noroeste 43 Noroeste 0 -- -- 50
2019-09-05 09:00:00 17.4 27 Noroeste 39 Noroeste 0 -- -- 60
2019-09-05 08:00:00 16.2 22 Noroeste 36 Noroeste 0 -- -- 69
2019-09-05 07:00:00 15.6 23 Noroeste 39 Noroeste 0 -- -- 71
2019-09-05 06:00:00 15.5 25 Noroeste 41 Noroeste 0 -- -- 66
2019-09-05 05:00:00 15.5 27 Noroeste 44 Noroeste 0 -- -- 63
2019-09-05 04:00:00 15.8 31 Noroeste 46 Noroeste 0 -- -- 62
2019-09-05 03:00:00 16.1 33 Noroeste 49 Noroeste 0 -- -- 61
2019-09-05 02:00:00 16.5 31 Noroeste 47 Noroeste 0 -- -- 60
2019-09-05 01:00:00 17.1 33 Noroeste 46 Noroeste 0 -- -- 60
2019-09-05 00:00:00 18 26 Noroeste 39 Noroeste 0 -- -- 58
2019-09-04 23:00:00 19.2 26 Noroeste 41 Noroeste 0 -- -- 55
2019-09-04 22:00:00 21.1 28 Noroeste 37 Noroeste 0 -- -- 51
2019-09-04 21:00:00 23.7 23 Noroeste 31 Noroeste 0 -- -- 44
2019-09-04 20:00:00 27 19 Noroeste 28 Noroeste 0 -- -- 38
2019-09-04 19:00:00 29.2 19 Noroeste 26 Noroeste 0 -- -- 29
2019-09-04 18:00:00 30.5 13 Noroeste 22 Noroeste 0 -- -- 28
2019-09-04 17:00:00 29.8 13 Noroeste 27 Noroeste 0 -- -- 27
2019-09-04 16:00:00 29.6 9 Norte 23 Oeste 0 -- -- 28
2019-09-04 15:00:00 28.5 9 Norte 18 Nordeste 0 -- -- 34
2019-09-04 14:00:00 27.9 4 Norte 16 Norte 0 -- -- 39
2019-09-04 13:00:00 25.5 8 Nordeste 14 Norte 0 -- -- 47
2019-09-04 12:00:00 23.8 5 Norte 12 Nordeste 0 -- -- 54
2019-09-04 11:00:00 22.2 7 Nordeste 12 Norte 0 -- -- 56
2019-09-04 10:00:00 20.1 5 Norte 8 Norte 0 -- -- 56
2019-09-04 09:00:00 18.9 2 Sudoeste 5 Oeste 0 -- -- 56
2019-09-04 08:00:00 15.8 4 Oeste -- -- 0 -- -- 63
2019-09-04 07:00:00 15.9 3 Oeste 6 Norte 0 -- -- 63
2019-09-04 06:00:00 16.4 4 Norte 5 Norte 0 -- -- 62
2019-09-04 05:00:00 16.9 0 Calma 3 Sudoeste 0 -- -- 60
2019-09-04 04:00:00 17.6 3 Este 9 Nordeste 0 -- -- 58
2019-09-04 03:00:00 18.2 0 Calma 5 Sudoeste 0 -- -- 53
2019-09-04 02:00:00 18.6 4 Sudoeste 6 Sudoeste 0 -- -- 50
2019-09-04 01:00:00 19.3 5 Sudeste 15 Este 0 -- -- 49
2019-09-04 00:00:00 21.6 7 Sudoeste 11 Sudoeste 0 -- -- 44
2019-09-03 23:00:00 21.5 7 Sudoeste 12 Sudoeste 0 -- -- 42
2019-09-03 22:00:00 22.7 5 Sudoeste 7 Sudoeste 0 -- -- 40
2019-09-03 21:00:00 24.8 4 Sur 8 Sur 0 -- -- 37
2019-09-03 20:00:00 26.7 4 Sudeste 12 Este 0 -- -- 34
2019-09-03 19:00:00 27.5 7 Nordeste 15 Este 0 -- -- 32
2019-09-03 18:00:00 27.7 9 Nordeste 16 Este 0 -- -- 31
2019-09-03 17:00:00 27.5 8 Nordeste 18 Nordeste 0 -- -- 31
2019-09-03 16:00:00 26.8 12 Nordeste 18 Norte 0 -- -- 33
2019-09-03 15:00:00 26.2 6 Nordeste 16 Norte 0 -- -- 34
2019-09-03 14:00:00 25.1 5 Este 16 Este 0 -- -- 37
2019-09-03 13:00:00 23.4 8 Nordeste 18 Este 0 -- -- 40
2019-09-03 12:00:00 20.9 5 Norte 14 Nordeste 0 -- -- 47
2019-09-03 11:00:00 19.6 6 Nordeste 13 Nordeste 0 -- -- 54
2019-09-03 10:00:00 17.1 4 Norte 9 Noroeste 0 -- -- 60
2019-09-03 09:00:00 15.2 0 Calma 11 Noroeste 0 -- -- 64
2019-09-03 08:00:00 12.9 0 Calma 9 Noroeste 0 -- -- 71
2019-09-03 07:00:00 13.2 8 Noroeste 10 Noroeste 0 -- -- 70
2019-09-03 06:00:00 12.7 9 Noroeste 17 Noroeste 0 -- -- 72
2019-09-03 05:00:00 13.4 12 Noroeste 18 Noroeste 0 -- -- 68
2019-09-03 04:00:00 14 11 Noroeste 14 Noroeste 0 -- -- 68
2019-09-03 03:00:00 14.7 11 Noroeste 15 Noroeste 0 -- -- 65
2019-09-03 02:00:00 15.6 11 Noroeste 19 Noroeste 0 -- -- 63
2019-09-03 01:00:00 16.7 12 Noroeste 21 Noroeste 0 -- -- 58
2019-09-03 00:00:00 17.7 18 Noroeste 29 Noroeste 0 -- -- 54
2019-09-02 23:00:00 18.8 21 Noroeste 28 Noroeste 0 -- -- 49
2019-09-02 22:00:00 19.6 18 Noroeste 27 Noroeste 0 -- -- 48
2019-09-02 21:00:00 21.4 21 Noroeste 32 Noroeste 0 -- -- 41
2019-09-02 20:00:00 23.8 21 Noroeste 35 Oeste 0 -- -- 36
2019-09-02 19:00:00 25.5 25 Noroeste 36 Oeste 0 -- -- 33
2019-09-02 18:00:00 26.4 25 Noroeste 33 Noroeste 0 -- -- 33
2019-09-02 17:00:00 26.4 21 Noroeste 37 Noroeste 0 -- -- 33
2019-09-02 16:00:00 26.3 21 Noroeste 37 Noroeste 0 -- -- 34
2019-09-02 15:00:00 25.6 18 Noroeste 33 Norte 0 -- -- 36
2019-09-02 14:00:00 24.4 17 Noroeste 34 Noroeste 0 -- -- 39
2019-09-02 13:00:00 22.7 21 Noroeste 37 Noroeste 0 -- -- 43
2019-09-02 12:00:00 21 26 Noroeste 39 Noroeste 0 -- -- 46
2019-09-02 11:00:00 19.7 28 Noroeste 39 Oeste 0 -- -- 50
2019-09-02 10:00:00 18 30 Noroeste 45 Noroeste 0 -- -- 56
2019-09-02 09:00:00 16.4 28 Noroeste 42 Noroeste 0 -- -- 62
2019-09-02 08:00:00 15 24 Noroeste 35 Noroeste 0 -- -- 69
2019-09-02 07:00:00 14.9 17 Noroeste 36 Noroeste 0 -- -- 72
2019-09-02 06:00:00 15.4 16 Noroeste 27 Oeste 0 -- -- 72
2019-09-02 05:00:00 16.5 11 Noroeste 40 Oeste 0 -- -- 72
2019-09-02 04:00:00 17.4 26 Oeste 39 Oeste 0 -- -- 71
2019-09-02 03:00:00 18.4 23 Noroeste 36 Oeste 0 -- -- 67
2019-09-02 02:00:00 18.9 18 Oeste 35 Oeste 0 -- -- 66
2019-09-02 01:00:00 20.7 25 Noroeste 37 Noroeste 0 -- -- 57
2019-09-02 00:00:00 21.5 14 Noroeste 36 Noroeste 0 -- -- 55
2019-09-01 23:00:00 22.3 26 Noroeste 40 Noroeste 0 -- -- 52
2019-09-01 22:00:00 23 27 Noroeste 39 Noroeste 0 -- -- 50
2019-09-01 21:00:00 24.5 26 Noroeste 38 Noroeste 0 -- -- 48
2019-09-01 20:00:00 25.9 21 Noroeste 31 Noroeste 0 -- -- 47
2019-09-01 19:00:00 28.4 10 Noroeste 23 Norte 0 -- -- 42
2019-09-01 18:00:00 28.8 13 Norte 25 Norte 0 -- -- 42
2019-09-01 17:00:00 28.8 15 Norte 27 Norte 0 -- -- 43
2019-09-01 16:00:00 28.3 16 Norte 24 Norte 0 -- -- 43
2019-09-01 15:00:00 28.3 14 Norte 25 Norte 0 -- -- 44
2019-09-01 14:00:00 27.9 12 Norte 25 Norte 0 -- -- 45
2019-09-01 13:00:00 26.8 14 Norte 23 Norte 0 -- -- 48
2019-09-01 12:00:00 25.9 12 Nordeste 21 Norte 0 -- -- 51
2019-09-01 11:00:00 24.3 11 Norte 18 Norte 0 -- -- 56
2019-09-01 10:00:00 21 12 Norte 17 Norte 0 -- -- 70
2019-09-01 09:00:00 19.2 13 Norte 17 Norte 0 -- -- 75
2019-09-01 08:00:00 18.7 11 Noroeste 13 Noroeste 0 -- -- 66
2019-09-01 07:00:00 20.5 4 Oeste 8 Noroeste 0 -- -- 60
2019-09-01 06:00:00 21.6 8 Noroeste 10 Noroeste 0 -- -- 56
2019-09-01 05:00:00 22.1 5 Oeste 9 Noroeste 0 -- -- 55
2019-09-01 04:00:00 21.8 9 Noroeste 12 Noroeste 0 -- -- 57
2019-09-01 03:00:00 21.2 6 Noroeste 18 Norte 0 -- -- 61
2019-09-01 02:00:00 21 11 Norte 15 Norte 0 -- -- 61
2019-09-01 01:00:00 21.9 11 Noroeste 13 Noroeste 0 -- -- 57
2019-09-01 00:00:00 23.7 4 Este 11 Este 0 -- -- 52
2019-08-31 23:00:00 23.8 7 Sur 11 Sur 0 -- -- 50
2019-08-31 22:00:00 23.5 6 Sur 15 Este 0 -- -- 51
2019-08-31 21:00:00 23.9 10 Sudeste 24 Sudeste 0 -- -- 50
2019-08-31 20:00:00 26.1 10 Sudeste 15 Sudeste 0 -- -- 46
2019-08-31 19:00:00 26.9 8 Sudeste 31 Nordeste 0 -- -- 39
2019-08-31 18:00:00 27.2 16 Nordeste 41 Nordeste 0 -- -- 40
2019-08-31 17:00:00 30.3 21 Nordeste 35 Este 0 -- -- 35
2019-08-31 16:00:00 31.9 23 Este 39 Este 0 -- -- 38
2019-08-31 15:00:00 32.7 15 Este 26 Este 0 -- -- 36
2019-08-31 14:00:00 32 9 Este 19 Sudeste 0 -- -- 37
2019-08-31 13:00:00 30.7 8 Sudeste 15 Este 0 -- -- 39
2019-08-31 12:00:00 28.6 8 Sudeste 14 Este 0 -- -- 43
2019-08-31 11:00:00 26.3 7 Este 12 Nordeste 0 -- -- 49
2019-08-31 10:00:00 25.2 4 Este 10 Nordeste 0 -- -- 50
2019-08-31 09:00:00 22.9 3 Sudoeste 5 Sudoeste 0 -- -- 58
2019-08-31 08:00:00 21.2 4 Sudoeste 9 Sudoeste 0 -- -- 61
2019-08-31 07:00:00 20.3 5 Sudoeste 14 Sudoeste 0 -- -- 65
2019-08-31 06:00:00 20.5 8 Oeste 10 Sudoeste 0 -- -- 67
2019-08-31 05:00:00 20.8 8 Noroeste 9 Noroeste 0 -- -- 69
2019-08-31 04:00:00 20.3 8 Noroeste 11 Noroeste 0 -- -- 71
2019-08-31 03:00:00 20.8 8 Noroeste 9 Noroeste 0 -- -- 70
2019-08-31 02:00:00 21.3 5 Norte 12 Noroeste 0 -- -- 68
2019-08-31 01:00:00 23 7 Sudeste 17 Nordeste 0 -- -- 63
2019-08-31 00:00:00 24.7 2 Sudeste 8 Nordeste 0 -- -- 53
2019-08-30 23:00:00 24.6 7 Nordeste 13 Nordeste 0 -- -- 53
2019-08-30 22:00:00 26.9 4 Sudoeste 9 Sudoeste 0 -- -- 44
2019-08-30 21:00:00 28.6 6 Nordeste 12 Este 0 -- -- 44
2019-08-30 20:00:00 30.3 6 Nordeste 13 Este 0 -- -- 39
2019-08-30 19:00:00 31.4 8 Sudeste 20 Este 0 -- -- 34
2019-08-30 18:00:00 32.1 13 Este 21 Este 0 -- -- 36
2019-08-30 17:00:00 32.7 11 Nordeste 21 Este 0 -- -- 33
2019-08-30 16:00:00 32.4 10 Sudeste 18 Este 0 -- -- 34
2019-08-30 15:00:00 32 9 Este 17 Sudeste 0 -- -- 36
2019-08-30 14:00:00 30.6 12 Nordeste 19 Este 0 -- -- 40
2019-08-30 13:00:00 29.5 7 Sudeste 16 Nordeste 0 -- -- 42
2019-08-30 12:00:00 28 5 Sudoeste 12 Nordeste 0 -- -- 45
2019-08-30 11:00:00 25.9 8 Nordeste 12 Nordeste 0 -- -- 53
2019-08-30 10:00:00 24.8 6 Nordeste 10 Nordeste 0 -- -- 56
2019-08-30 09:00:00 21.8 0 Calma 4 Noroeste 0 -- -- 68
2019-08-30 08:00:00 20.4 0 Calma 5 Sudoeste 0 -- -- 68
2019-08-30 07:00:00 20.2 5 Sudoeste 8 Sudoeste 0 -- -- 70
2019-08-30 06:00:00 20.2 5 Sudoeste 9 Sudoeste 0 -- -- 72
2019-08-30 05:00:00 20.8 4 Oeste 5 Oeste 0 -- -- 71
2019-08-30 04:00:00 21.1 3 Oeste 9 Noroeste 0 -- -- 70
2019-08-30 03:00:00 20.8 7 Noroeste 9 Noroeste 0 -- -- 73
2019-08-30 02:00:00 22.1 0 Calma 6 Este 0 -- -- 66
2019-08-30 01:00:00 23.1 3 Sudoeste 8 Sudeste 0 -- -- 61
2019-08-30 00:00:00 24 3 Sudoeste 12 Este 0 -- -- 55
2019-08-29 23:00:00 24.8 10 Este 19 Este 0 -- -- 53
2019-08-29 22:00:00 26.7 6 Sudoeste 11 Sudoeste 0 -- -- 45
2019-08-29 21:00:00 28.8 5 Sur 9 Este 0 -- -- 44
2019-08-29 20:00:00 30.9 6 Este 14 Este 0 -- -- 37
2019-08-29 19:00:00 31.3 10 Este 18 Este 0 -- -- 36
2019-08-29 18:00:00 32 6 Este 15 Este 0 -- -- 35
2019-08-29 17:00:00 31.9 6 Este 17 Sudeste 0 -- -- 35
2019-08-29 16:00:00 32.1 7 Este 18 Sudeste 0 -- -- 36
2019-08-29 15:00:00 30.9 9 Este 17 Nordeste 0 -- -- 39
2019-08-29 14:00:00 30.3 8 Este 22 Este 0 -- -- 41
2019-08-29 13:00:00 28.3 7 Sudeste 17 Sur 0 -- -- 46
2019-08-29 12:00:00 27 6 Sur 14 Sur 0 -- -- 49
2019-08-29 11:00:00 24.9 5 Este 12 Sudeste 0 -- -- 55
2019-08-29 10:00:00 23.5 5 Sur 8 Sudeste 0 -- -- 60
2019-08-29 09:00:00 21.4 3 Sudoeste 5 Sudoeste 0 -- -- 69
2019-08-29 08:00:00 19.1 3 Oeste 7 Sudoeste 0 -- -- 76
2019-08-29 07:00:00 18.7 3 Sudoeste 4 Sudoeste 0 -- -- 75
2019-08-29 06:00:00 19.1 2 Sur 7 Noroeste 0 -- -- 75
2019-08-29 05:00:00 18.9 7 Noroeste 8 Noroeste 0 -- -- 78
2019-08-29 04:00:00 20.1 4 Sudoeste 8 Sudeste 0 -- -- 73
2019-08-29 03:00:00 20.7 5 Este 12 Sudeste 0 -- -- 71
2019-08-29 02:00:00 22.3 8 Sudeste 11 Sudeste 0 -- -- 63
2019-08-29 01:00:00 23.6 6 Sudeste 10 Sudeste 0 -- -- 56
2019-08-29 00:00:00 23.9 5 Sur 12 Sur 0 -- -- 55
2019-08-28 23:00:00 24.6 6 Sudoeste 10 Sudoeste 0 -- -- 53
2019-08-28 22:00:00 25.7 6 Sudoeste 9 Sudoeste 0 -- -- 52
2019-08-28 21:00:00 27.6 5 Sudeste 9 Nordeste 0 -- -- 46
2019-08-28 20:00:00 29.1 7 Nordeste 16 Nordeste 0 -- -- 43
2019-08-28 19:00:00 29.8 11 Nordeste 16 Este 0 -- -- 42
2019-08-28 18:00:00 30 10 Este 17 Este 0 -- -- 40
2019-08-28 17:00:00 30 9 Nordeste 17 Este 0 -- -- 41
2019-08-28 16:00:00 29.2 11 Este 19 Sudeste 0 -- -- 44
2019-08-28 15:00:00 29.1 6 Nordeste 17 Nordeste 0 -- -- 45
2019-08-28 14:00:00 29 6 Sudeste 16 Este 0 -- -- 47
2019-08-28 13:00:00 26.8 8 Norte 21 Este 0 -- -- 51
2019-08-28 12:00:00 25.8 9 Nordeste 15 Nordeste 0 -- -- 54
2019-08-28 11:00:00 24.2 4 Norte 10 Norte 0 -- -- 58
2019-08-28 10:00:00 22.5 4 Sur 9 Sur 0 -- -- 66
2019-08-28 09:00:00 19.9 3 Sudoeste 7 Noroeste 0 -- -- 73
2019-08-28 08:00:00 17.8 5 Noroeste 17 Noroeste 0 -- -- 80
2019-08-28 07:00:00 17 14 Noroeste 17 Noroeste 0 -- -- 82
2019-08-28 06:00:00 16.8 6 Norte 12 Nordeste 0 -- -- 87
2019-08-28 05:00:00 17.5 6 Norte 11 Norte 0 -- -- 81
2019-08-28 04:00:00 19.1 5 Sudoeste 9 Oeste 0 -- -- 74
2019-08-28 03:00:00 18.8 4 Sudoeste 7 Sudoeste 0 -- -- 76
2019-08-28 02:00:00 18.9 5 Sudoeste 13 Oeste 0 -- -- 77
2019-08-28 01:00:00 19 13 Noroeste 15 Noroeste 0 -- -- 78
2019-08-28 00:00:00 19.6 4 Noroeste 8 Oeste 0 -- -- 76
2019-08-27 23:00:00 20.6 4 Sur 6 Sudoeste 0 -- -- 71
2019-08-27 22:00:00 21.2 3 Sudeste 8 Sudeste 0 -- -- 70
2019-08-27 21:00:00 21.7 6 Sudeste 26 Este 0 -- -- 67
2019-08-27 20:00:00 23.1 12 Sudeste 31 Sudeste 0 -- -- 61
2019-08-27 19:00:00 24 27 Sudeste 41 Sudeste 0 -- -- 58
2019-08-27 18:00:00 27.6 12 Este 27 Este 0 -- -- 46
2019-08-27 17:00:00 27.4 13 Sur 24 Sudeste 0 -- -- 43
2019-08-27 16:00:00 26.9 15 Sur 40 Sudeste 0 -- -- 48
2019-08-27 15:00:00 26.6 19 Sur 32 Sur 0 -- -- 48
2019-08-27 14:00:00 26.2 16 Sur 34 Sur 0 -- -- 52
2019-08-27 13:00:00 25.1 17 Sudeste 27 Sur 0 -- -- 53
2019-08-27 12:00:00 24.4 15 Sur 23 Sur 0 -- -- 54
2019-08-27 11:00:00 24 8 Sudeste 15 Sur 0 -- -- 59
2019-08-27 10:00:00 21.8 6 Sur 14 Sudeste 0 -- -- 76
2019-08-27 09:00:00 19 10 Sur 17 Sudeste 0 -- -- 90
2019-08-27 08:00:00 18.7 12 Sudeste 21 Sudeste 0 -- -- 88
2019-08-27 07:00:00 19.1 9 Este 15 Sudeste 0.4 -- -- 86
2019-08-27 06:00:00 19.7 8 Este 15 Sudeste 0.2 -- -- 82
2019-08-27 05:00:00 20.5 8 Sudeste 12 Sudeste 0 -- -- 74
2019-08-27 04:00:00 21.3 7 Sudeste 11 Sur 0 -- -- 66
2019-08-27 03:00:00 21.2 9 Sur 18 Sur 0 -- -- 71
2019-08-27 02:00:00 21.2 7 Sur 16 Nordeste 0 -- -- 70
2019-08-27 01:00:00 21.5 10 Este 24 Nordeste 0 -- -- 68
2019-08-27 00:00:00 22.7 8 Sudeste 25 Sudeste 0 -- -- 58
2019-08-26 23:00:00 23.3 15 Sudeste 28 Sudeste 0 -- -- 52
2019-08-26 22:00:00 24.1 15 Sudeste 30 Sudeste 0 -- -- 47
2019-08-26 21:00:00 25.3 12 Sudeste 30 Sudeste 0 -- -- 44
2019-08-26 20:00:00 27.1 20 Sur 41 Sur 0 -- -- 40
2019-08-26 19:00:00 28.3 23 Sudeste 37 Sudeste 0 -- -- 37
2019-08-26 18:00:00 28.7 20 Sudeste 37 Este 0 -- -- 42
2019-08-26 17:00:00 28.8 22 Este 50 Este 0 -- -- 42
2019-08-26 16:00:00 28.1 19 Sudeste 32 Sudeste 0 -- -- 41
2019-08-26 15:00:00 27.7 15 Este 24 Este 0 -- -- 42
2019-08-26 14:00:00 27.4 12 Sudeste 24 Este 0 -- -- 46
2019-08-26 13:00:00 26.6 11 Sudeste 18 Sudeste 0 -- -- 47
2019-08-26 12:00:00 24.4 10 Sudeste 19 Este 0 -- -- 56
2019-08-26 11:00:00 22.9 10 Sudeste 19 Sudeste 0 -- -- 61
2019-08-26 10:00:00 20.6 10 Sudeste 15 Sudeste 0 -- -- 68
2019-08-26 09:00:00 19.9 6 Sudeste 12 Este 0 -- -- 68
2019-08-26 08:00:00 18.6 2 Sudoeste 6 Sudoeste 0 -- -- 71
2019-08-26 07:00:00 18.3 3 Sudoeste 9 Sudoeste 0 -- -- 70
2019-08-26 06:00:00 18.9 3 Sur 7 Sudeste 0 -- -- 68
2019-08-26 05:00:00 19.5 2 Sur 6 Sudoeste 0 -- -- 65
2019-08-26 04:00:00 20.6 4 Sur 8 Sur 0 -- -- 62
2019-08-26 03:00:00 20.8 4 Sur 12 Sudeste 0 -- -- 63
2019-08-26 02:00:00 21.1 6 Sudeste 16 Sudeste 0 -- -- 62
2019-08-26 01:00:00 21.6 8 Sudeste 15 Sudeste 0 -- -- 61
2019-08-26 00:00:00 23 8 Este 22 Sudeste 0 -- -- 50
2019-08-25 23:00:00 25 16 Sudeste 28 Sur 0 -- -- 43
2019-08-25 22:00:00 26.7 19 Sur 33 Sur 0 -- -- 36
2019-08-25 21:00:00 28.2 20 Sur 30 Sur 0 -- -- 36
2019-08-25 20:00:00 30.3 9 Sudeste 26 Este 0 -- -- 35
2019-08-25 19:00:00 31.6 15 Este 24 Este 0 -- -- 31
2019-08-25 18:00:00 32.2 10 Sudeste 25 Este 0 -- -- 28
2019-08-25 17:00:00 32.1 11 Sudeste 22 Este 0 -- -- 31
2019-08-25 16:00:00 31.5 11 Sudeste 23 Este 0 -- -- 33
2019-08-25 15:00:00 30.8 11 Sudeste 23 Este 0 -- -- 33
2019-08-25 14:00:00 30.1 12 Este 21 Este 0 -- -- 31
2019-08-25 13:00:00 28.8 10 Sudeste 18 Sudeste 0 -- -- 38
2019-08-25 12:00:00 27 9 Sudeste 15 Sudeste 0 -- -- 45
2019-08-25 11:00:00 25.1 9 Sudeste 14 Sudeste 0 -- -- 50
2019-08-25 10:00:00 23.6 7 Sudeste 13 Sudeste 0 -- -- 56
2019-08-25 09:00:00 21.1 6 Sudoeste 10 Sudoeste 0 -- -- 66
2019-08-25 08:00:00 19.1 6 Sudoeste 9 Oeste 0 -- -- 71
2019-08-25 07:00:00 18.6 3 Oeste 8 Noroeste 0 -- -- 72
2019-08-25 06:00:00 17.9 5 Noroeste 7 Sudoeste 0 -- -- 77
2019-08-25 05:00:00 19.1 5 Sudoeste 8 Sudoeste 0 -- -- 72
2019-08-25 04:00:00 20.1 3 Sur 6 Este 0 -- -- 68
2019-08-25 03:00:00 20.6 5 Sudeste 15 Sudeste 0 -- -- 67
2019-08-25 02:00:00 21.6 9 Este 18 Este 0 -- -- 64
2019-08-25 01:00:00 23.3 9 Este 15 Sur 0 -- -- 55
2019-08-25 00:00:00 24.5 10 Sudeste 15 Sudeste 0 -- -- 50
2019-08-24 23:00:00 25.3 10 Sur 14 Sur 0 -- -- 49
2019-08-24 22:00:00 26.1 5 Sudoeste 8 Sudeste 0 -- -- 47
2019-08-24 21:00:00 28.4 7 Este 12 Este 0 -- -- 42
2019-08-24 20:00:00 30.6 8 Este 14 Este 0 -- -- 34
2019-08-24 19:00:00 31.6 8 Sudeste 17 Este 0 -- -- 24
2019-08-24 18:00:00 31.6 12 Este 23 Sudeste 0 -- -- 30
2019-08-24 17:00:00 31.6 12 Este 23 Sudeste 0 -- -- 30
2019-08-24 16:00:00 31.3 13 Sudeste 24 Sudeste 0 -- -- 31
2019-08-24 15:00:00 30.4 12 Sudeste 21 Sudeste 0 -- -- 37
2019-08-24 14:00:00 29.7 12 Sudeste 22 Este 0 -- -- 40
2019-08-24 13:00:00 28.4 11 Este 19 Sur 0 -- -- 43
2019-08-24 12:00:00 26.4 10 Sudeste 17 Sur 0 -- -- 50
2019-08-24 11:00:00 24.5 7 Sudeste 14 Este 0 -- -- 57
2019-08-24 10:00:00 23.5 5 Este 9 Este 0 -- -- 60
2019-08-24 09:00:00 20.9 3 Sur 6 Sudoeste 0 -- -- 70
2019-08-24 08:00:00 18.7 5 Sudoeste 8 Sudoeste 0 -- -- 75
2019-08-24 07:00:00 18.3 2 Sudoeste 3 Oeste 0 -- -- 80
2019-08-24 06:00:00 18.1 3 Oeste 9 Noroeste 0 -- -- 81
2019-08-24 05:00:00 18.4 5 Noroeste 8 Noroeste 0 -- -- 81
2019-08-24 04:00:00 18.6 5 Oeste 9 Noroeste 0 -- -- 80
2019-08-24 03:00:00 18.8 6 Norte 9 Este 0 -- -- 78
2019-08-24 02:00:00 20.8 8 Sudeste 13 Sudeste 0 -- -- 72
2019-08-24 01:00:00 21.9 5 Sudeste 8 Sudeste 0 -- -- 68
2019-08-24 00:00:00 23.3 4 Sudeste 14 Sur 0 -- -- 62
2019-08-23 23:00:00 24 10 Sur 14 Sur 0 -- -- 55
2019-08-23 22:00:00 25.1 5 Sudoeste 9 Sudoeste 0 -- -- 46
2019-08-23 21:00:00 27.6 4 Sudeste 8 Sudeste 0 -- -- 40
2019-08-23 20:00:00 29.4 5 Este 18 Este 0 -- -- 31
2019-08-23 19:00:00 30.1 12 Este 21 Este 0 -- -- 30
2019-08-23 18:00:00 30.3 12 Este 23 Este 0 -- -- 35
2019-08-23 17:00:00 30.2 10 Este 22 Sudeste 0 -- -- 37
2019-08-23 16:00:00 29.7 11 Sudeste 23 Nordeste 0 -- -- 39
2019-08-23 15:00:00 29.3 11 Este 20 Este 0 -- -- 42
2019-08-23 14:00:00 28.6 12 Este 21 Este 0 -- -- 45
2019-08-23 13:00:00 27 10 Este 17 Este 0 -- -- 55
2019-08-23 12:00:00 25.4 9 Este 17 Sudeste 0 -- -- 60
2019-08-23 11:00:00 23.7 6 Este 14 Sudeste 0 -- -- 67
2019-08-23 10:00:00 22.6 5 Este 8 Sudeste 0 -- -- 68
2019-08-23 09:00:00 20.2 5 Sudoeste 11 Oeste 0 -- -- 77
2019-08-23 08:00:00 17.7 5 Sudoeste 8 Sudoeste 0 -- -- 80
2019-08-23 07:00:00 17.2 3 Sudoeste 6 Oeste 0 -- -- 79
2019-08-23 06:00:00 16.8 3 Oeste 6 Sudeste 0 -- -- 80
2019-08-23 05:00:00 18.2 3 Sur 9 Sudeste 0 -- -- 74
2019-08-23 04:00:00 18.7 6 Sudeste 13 Sudeste 0 -- -- 74
2019-08-23 03:00:00 19.5 6 Sur 12 Sudeste 0 -- -- 69
2019-08-23 02:00:00 19.9 3 Sur 5 Sur 0 -- -- 58
2019-08-23 01:00:00 21.1 4 Nordeste 8 Este 0 -- -- 57
2019-08-23 00:00:00 22.3 3 Sudoeste 7 Oeste 0 -- -- 53
2019-08-22 23:00:00 22.5 4 Sudoeste 12 Noroeste 0 -- -- 54
2019-08-22 22:00:00 24 5 Sudoeste 10 Sudoeste 0 -- -- 51
2019-08-22 21:00:00 25.8 8 Sur 12 Sur 0 -- -- 47
2019-08-22 20:00:00 28.3 5 Este 14 Sudeste 0 -- -- 35
2019-08-22 19:00:00 29.1 6 Este 13 Nordeste 0 -- -- 35
2019-08-22 18:00:00 29.3 8 Nordeste 14 Norte 0 -- -- 34
2019-08-22 17:00:00 29.2 7 Norte 18 Norte 0 -- -- 34
2019-08-22 16:00:00 28.7 6 Nordeste 25 Norte 0 -- -- 33
2019-08-22 15:00:00 27.8 8 Noroeste 21 Noroeste 0 -- -- 38
2019-08-22 14:00:00 26.2 9 Norte 22 Noroeste 0 -- -- 43
2019-08-22 13:00:00 25.2 9 Noroeste 26 Nordeste 0 -- -- 46
2019-08-22 12:00:00 23.5 10 Norte 18 Norte 0 -- -- 51
2019-08-22 11:00:00 21.5 7 Norte 12 Norte 0 -- -- 60
2019-08-22 10:00:00 18.8 7 Norte 10 Norte 0 -- -- 68
2019-08-22 09:00:00 17.4 2 Sur 7 Noroeste 0 -- -- 72
2019-08-22 08:00:00 14.9 8 Noroeste 13 Noroeste 0 -- -- 79
2019-08-22 07:00:00 15.1 11 Noroeste 15 Noroeste 0 -- -- 80
2019-08-22 06:00:00 15.3 11 Noroeste 13 Noroeste 0 -- -- 82
2019-08-22 05:00:00 16.4 9 Noroeste 11 Noroeste 0 -- -- 78
2019-08-22 04:00:00 16.7 7 Norte 12 Noroeste 0 -- -- 81
2019-08-22 03:00:00 18.1 9 Noroeste 14 Noroeste 0 -- -- 75
2019-08-22 02:00:00 20.2 6 Norte 11 Norte 0 -- -- 69
2019-08-22 01:00:00 21 10 Noroeste 23 Noroeste 0 -- -- 63
2019-08-22 00:00:00 22.5 11 Oeste 19 Oeste 0 -- -- 59
2019-08-21 23:00:00 22.5 9 Oeste 15 Oeste 0 -- -- 62
2019-08-21 22:00:00 22.7 9 Oeste 15 Oeste 0 -- -- 63
2019-08-21 21:00:00 23.3 8 Noroeste 13 Oeste 0 -- -- 62
2019-08-21 20:00:00 24.3 7 Sudoeste 19 Oeste 0 -- -- 59
2019-08-21 19:00:00 25.3 13 Sudoeste 23 Oeste 0 -- -- 56
2019-08-21 18:00:00 26.9 5 Sudoeste 11 Oeste 0 -- -- 48
2019-08-21 17:00:00 26.8 4 Norte 18 Nordeste 0 -- -- 47
2019-08-21 16:00:00 26.7 8 Norte 20 Norte 0 -- -- 49
2019-08-21 15:00:00 26.3 10 Norte 18 Noroeste 0 -- -- 54
2019-08-21 14:00:00 25.3 9 Nordeste 15 Este 0 -- -- 55
2019-08-21 13:00:00 24.8 5 Nordeste 15 Noroeste 0 -- -- 58
2019-08-21 12:00:00 22.5 5 Norte 12 Noroeste 0 -- -- 63
2019-08-21 11:00:00 21.3 5 Nordeste 8 Norte 0 -- -- 65
2019-08-21 10:00:00 19.4 4 Norte 13 Norte 0 -- -- 70
2019-08-21 09:00:00 17.5 9 Noroeste 13 Norte 0 -- -- 78
2019-08-21 08:00:00 15.7 10 Norte 12 Norte 0 -- -- 85
2019-08-21 07:00:00 15.7 9 Norte 12 Norte 0 -- -- 86
2019-08-21 06:00:00 16 9 Norte 12 Norte 0 -- -- 83
2019-08-21 05:00:00 16.4 8 Noroeste 9 Noroeste 0 -- -- 90
2019-08-21 04:00:00 16.8 5 Norte 9 Norte 0 -- -- 83
2019-08-21 03:00:00 17.5 6 Noroeste 8 Noroeste 0 -- -- 88
2019-08-21 02:00:00 18 5 Sur 10 Sudeste 0 -- -- 85
2019-08-21 01:00:00 18.3 8 Este 12 Oeste 0 -- -- 83
2019-08-21 00:00:00 18.9 7 Oeste 12 Oeste 0 -- -- 80